sensor_id;sensor_type;location;lat;lon;timestamp;P1;durP1;ratioP1;P2;durP2;ratioP2
59876;SDS011;45749;51.140;17.184;2022-11-20T00:01:31;159.35;;;74.03;;
59876;SDS011;45749;51.140;17.184;2022-11-20T00:03:58;142.18;;;67.58;;
59876;SDS011;45749;51.140;17.184;2022-11-20T00:06:25;129.20;;;60.40;;
59876;SDS011;45749;51.140;17.184;2022-11-20T00:08:54;139.43;;;59.88;;
59876;SDS011;45749;51.140;17.184;2022-11-20T00:11:22;132.55;;;60.95;;
59876;SDS011;45749;51.140;17.184;2022-11-20T00:13:52;121.25;;;55.50;;
59876;SDS011;45749;51.140;17.184;2022-11-20T00:16:22;112.12;;;52.55;;
59876;SDS011;45749;51.140;17.184;2022-11-20T00:18:51;119.28;;;54.38;;
59876;SDS011;45749;51.140;17.184;2022-11-20T00:21:19;97.12;;;50.12;;
59876;SDS011;45749;51.140;17.184;2022-11-20T00:23:49;98.47;;;46.85;;
59876;SDS011;45749;51.140;17.184;2022-11-20T00:26:18;92.70;;;43.35;;
59876;SDS011;45749;51.140;17.184;2022-11-20T00:28:53;95.75;;;45.35;;
59876;SDS011;45749;51.140;17.184;2022-11-20T00:31:24;83.92;;;43.63;;
59876;SDS011;45749;51.140;17.184;2022-11-20T00:33:51;81.00;;;40.70;;
59876;SDS011;45749;51.140;17.184;2022-11-20T00:36:19;85.07;;;42.62;;
59876;SDS011;45749;51.140;17.184;2022-11-20T00:38:50;84.92;;;41.73;;
59876;SDS011;45749;51.140;17.184;2022-11-20T00:41:20;86.42;;;40.65;;
59876;SDS011;45749;51.140;17.184;2022-11-20T00:43:50;79.95;;;41.77;;
59876;SDS011;45749;51.140;17.184;2022-11-20T00:46:19;80.55;;;40.83;;
59876;SDS011;45749;51.140;17.184;2022-11-20T00:48:48;67.70;;;37.45;;
59876;SDS011;45749;51.140;17.184;2022-11-20T00:51:27;83.80;;;37.85;;
59876;SDS011;45749;51.140;17.184;2022-11-20T00:53:47;70.28;;;35.10;;
59876;SDS011;45749;51.140;17.184;2022-11-20T00:56:15;77.45;;;38.73;;
59876;SDS011;45749;51.140;17.184;2022-11-20T00:58:44;72.47;;;38.28;;
59876;SDS011;45749;51.140;17.184;2022-11-20T01:01:13;77.87;;;38.17;;
59876;SDS011;45749;51.140;17.184;2022-11-20T01:06:14;70.57;;;35.17;;
59876;SDS011;45749;51.140;17.184;2022-11-20T01:08:44;78.40;;;38.95;;
59876;SDS011;45749;51.140;17.184;2022-11-20T01:11:19;72.10;;;34.75;;
59876;SDS011;45749;51.140;17.184;2022-11-20T01:18:49;71.95;;;36.00;;
59876;SDS011;45749;51.140;17.184;2022-11-20T01:21:18;73.15;;;37.48;;
59876;SDS011;45749;51.140;17.184;2022-11-20T01:23:57;78.55;;;37.98;;
59876;SDS011;45749;51.140;17.184;2022-11-20T01:26:24;80.32;;;38.40;;
59876;SDS011;45749;51.140;17.184;2022-11-20T01:28:56;78.80;;;37.17;;
59876;SDS011;45749;51.140;17.184;2022-11-20T01:31:24;76.50;;;38.40;;
59876;SDS011;45749;51.140;17.184;2022-11-20T01:34:05;71.72;;;37.25;;
59876;SDS011;45749;51.140;17.184;2022-11-20T01:36:37;70.05;;;35.78;;
59876;SDS011;45749;51.140;17.184;2022-11-20T01:39:05;68.65;;;34.90;;
59876;SDS011;45749;51.140;17.184;2022-11-20T01:41:38;70.62;;;33.92;;
59876;SDS011;45749;51.140;17.184;2022-11-20T01:44:42;60.00;;;31.55;;
59876;SDS011;45749;51.140;17.184;2022-11-20T01:47:31;64.75;;;32.08;;
59876;SDS011;45749;51.140;17.184;2022-11-20T01:50:16;55.40;;;31.95;;
59876;SDS011;45749;51.140;17.184;2022-11-20T01:52:58;66.10;;;32.13;;
59876;SDS011;45749;51.140;17.184;2022-11-20T01:55:31;63.78;;;32.05;;
59876;SDS011;45749;51.140;17.184;2022-11-20T01:58:02;64.40;;;33.73;;
59876;SDS011;45749;51.140;17.184;2022-11-20T02:00:29;54.95;;;28.80;;
59876;SDS011;45749;51.140;17.184;2022-11-20T02:03:00;60.63;;;31.82;;
59876;SDS011;45749;51.140;17.184;2022-11-20T02:08:25;60.83;;;33.33;;
59876;SDS011;45749;51.140;17.184;2022-11-20T02:10:51;62.65;;;34.27;;
59876;SDS011;45749;51.140;17.184;2022-11-20T02:13:16;63.80;;;34.90;;
59876;SDS011;45749;51.140;17.184;2022-11-20T02:16:02;65.30;;;36.03;;
59876;SDS011;45749;51.140;17.184;2022-11-20T02:18:28;68.17;;;36.70;;
59876;SDS011;45749;51.140;17.184;2022-11-20T02:21:01;64.03;;;35.10;;
59876;SDS011;45749;51.140;17.184;2022-11-20T02:23:40;55.40;;;31.33;;
59876;SDS011;45749;51.140;17.184;2022-11-20T02:26:37;66.55;;;33.38;;
59876;SDS011;45749;51.140;17.184;2022-11-20T02:29:03;63.48;;;30.45;;
59876;SDS011;45749;51.140;17.184;2022-11-20T02:31:33;59.67;;;32.55;;
59876;SDS011;45749;51.140;17.184;2022-11-20T02:34:02;60.03;;;32.80;;
59876;SDS011;45749;51.140;17.184;2022-11-20T02:36:28;64.03;;;35.78;;
59876;SDS011;45749;51.140;17.184;2022-11-20T02:38:57;62.73;;;29.85;;
59876;SDS011;45749;51.140;17.184;2022-11-20T02:41:30;67.45;;;32.78;;
59876;SDS011;45749;51.140;17.184;2022-11-20T02:43:59;62.35;;;34.63;;
59876;SDS011;45749;51.140;17.184;2022-11-20T02:46:26;75.67;;;41.48;;
59876;SDS011;45749;51.140;17.184;2022-11-20T02:48:52;71.20;;;38.08;;
59876;SDS011;45749;51.140;17.184;2022-11-20T02:51:18;64.55;;;35.70;;
59876;SDS011;45749;51.140;17.184;2022-11-20T02:53:44;64.20;;;35.75;;
59876;SDS011;45749;51.140;17.184;2022-11-20T02:56:10;66.00;;;34.18;;
59876;SDS011;45749;51.140;17.184;2022-11-20T02:58:36;72.17;;;37.88;;
59876;SDS011;45749;51.140;17.184;2022-11-20T03:01:02;69.85;;;34.75;;
59876;SDS011;45749;51.140;17.184;2022-11-20T03:03:28;70.95;;;35.08;;
59876;SDS011;45749;51.140;17.184;2022-11-20T03:05:54;75.65;;;34.88;;
59876;SDS011;45749;51.140;17.184;2022-11-20T03:08:19;71.77;;;35.10;;
59876;SDS011;45749;51.140;17.184;2022-11-20T03:10:45;63.42;;;33.25;;
59876;SDS011;45749;51.140;17.184;2022-11-20T03:13:11;66.05;;;33.20;;
59876;SDS011;45749;51.140;17.184;2022-11-20T03:15:37;62.80;;;30.43;;
59876;SDS011;45749;51.140;17.184;2022-11-20T03:18:03;61.42;;;32.03;;
59876;SDS011;45749;51.140;17.184;2022-11-20T03:20:29;58.48;;;31.80;;
59876;SDS011;45749;51.140;17.184;2022-11-20T03:22:58;57.50;;;29.20;;
59876;SDS011;45749;51.140;17.184;2022-11-20T03:25:23;58.83;;;29.42;;
59876;SDS011;45749;51.140;17.184;2022-11-20T03:27:49;60.80;;;29.45;;
59876;SDS011;45749;51.140;17.184;2022-11-20T03:30:15;62.10;;;30.57;;
59876;SDS011;45749;51.140;17.184;2022-11-20T03:32:41;54.73;;;28.57;;
59876;SDS011;45749;51.140;17.184;2022-11-20T03:35:08;54.18;;;29.77;;
59876;SDS011;45749;51.140;17.184;2022-11-20T03:37:34;52.88;;;28.17;;
59876;SDS011;45749;51.140;17.184;2022-11-20T03:40:00;53.40;;;30.88;;
59876;SDS011;45749;51.140;17.184;2022-11-20T03:42:26;56.90;;;27.42;;
59876;SDS011;45749;51.140;17.184;2022-11-20T03:45:10;55.17;;;28.57;;
59876;SDS011;45749;51.140;17.184;2022-11-20T03:47:41;53.48;;;29.00;;
59876;SDS011;45749;51.140;17.184;2022-11-20T03:50:09;52.78;;;27.20;;
59876;SDS011;45749;51.140;17.184;2022-11-20T03:52:39;48.75;;;27.27;;
59876;SDS011;45749;51.140;17.184;2022-11-20T03:55:06;58.50;;;30.72;;
59876;SDS011;45749;51.140;17.184;2022-11-20T03:57:33;49.98;;;28.12;;
59876;SDS011;45749;51.140;17.184;2022-11-20T03:59:59;53.98;;;27.70;;
59876;SDS011;45749;51.140;17.184;2022-11-20T04:02:25;50.43;;;27.27;;
59876;SDS011;45749;51.140;17.184;2022-11-20T04:04:51;54.63;;;27.15;;
59876;SDS011;45749;51.140;17.184;2022-11-20T04:07:17;53.63;;;30.50;;
59876;SDS011;45749;51.140;17.184;2022-11-20T04:09:43;57.83;;;29.52;;
59876;SDS011;45749;51.140;17.184;2022-11-20T04:12:09;59.48;;;31.40;;
59876;SDS011;45749;51.140;17.184;2022-11-20T04:14:34;56.15;;;30.72;;
59876;SDS011;45749;51.140;17.184;2022-11-20T04:17:01;53.70;;;32.35;;
59876;SDS011;45749;51.140;17.184;2022-11-20T04:19:27;56.95;;;30.95;;
59876;SDS011;45749;51.140;17.184;2022-11-20T04:21:52;61.70;;;29.50;;
59876;SDS011;45749;51.140;17.184;2022-11-20T04:24:18;60.88;;;34.35;;
59876;SDS011;45749;51.140;17.184;2022-11-20T04:26:44;64.15;;;29.98;;
59876;SDS011;45749;51.140;17.184;2022-11-20T04:29:10;54.35;;;30.17;;
59876;SDS011;45749;51.140;17.184;2022-11-20T04:31:37;60.95;;;29.42;;
59876;SDS011;45749;51.140;17.184;2022-11-20T04:34:04;57.17;;;29.67;;
59876;SDS011;45749;51.140;17.184;2022-11-20T04:36:32;53.90;;;29.25;;
59876;SDS011;45749;51.140;17.184;2022-11-20T04:39:00;47.65;;;28.32;;
59876;SDS011;45749;51.140;17.184;2022-11-20T04:41:30;50.28;;;27.75;;
59876;SDS011;45749;51.140;17.184;2022-11-20T04:44:00;52.45;;;29.07;;
59876;SDS011;45749;51.140;17.184;2022-11-20T04:46:33;55.00;;;28.75;;
59876;SDS011;45749;51.140;17.184;2022-11-20T04:49:03;48.52;;;27.90;;
59876;SDS011;45749;51.140;17.184;2022-11-20T04:51:29;53.60;;;28.38;;
59876;SDS011;45749;51.140;17.184;2022-11-20T04:53:55;56.73;;;30.95;;
59876;SDS011;45749;51.140;17.184;2022-11-20T04:56:21;54.70;;;29.57;;
59876;SDS011;45749;51.140;17.184;2022-11-20T04:58:48;52.50;;;26.02;;
59876;SDS011;45749;51.140;17.184;2022-11-20T05:01:16;56.28;;;28.83;;
59876;SDS011;45749;51.140;17.184;2022-11-20T05:03:47;57.85;;;26.85;;
59876;SDS011;45749;51.140;17.184;2022-11-20T05:06:14;47.85;;;26.45;;
59876;SDS011;45749;51.140;17.184;2022-11-20T05:08:42;51.58;;;27.52;;
59876;SDS011;45749;51.140;17.184;2022-11-20T05:11:13;56.48;;;28.35;;
59876;SDS011;45749;51.140;17.184;2022-11-20T05:13:42;51.28;;;29.72;;
59876;SDS011;45749;51.140;17.184;2022-11-20T05:16:09;48.92;;;26.33;;
59876;SDS011;45749;51.140;17.184;2022-11-20T05:18:41;48.65;;;25.40;;
59876;SDS011;45749;51.140;17.184;2022-11-20T05:21:08;49.18;;;26.68;;
59876;SDS011;45749;51.140;17.184;2022-11-20T05:23:36;54.40;;;30.48;;
59876;SDS011;45749;51.140;17.184;2022-11-20T05:26:02;50.10;;;27.02;;
59876;SDS011;45749;51.140;17.184;2022-11-20T05:28:31;50.65;;;27.98;;
59876;SDS011;45749;51.140;17.184;2022-11-20T05:31:05;54.03;;;29.90;;
59876;SDS011;45749;51.140;17.184;2022-11-20T05:33:38;53.40;;;30.57;;
59876;SDS011;45749;51.140;17.184;2022-11-20T05:36:06;54.73;;;30.92;;
59876;SDS011;45749;51.140;17.184;2022-11-20T05:38:33;53.35;;;27.73;;
59876;SDS011;45749;51.140;17.184;2022-11-20T05:41:06;58.60;;;29.27;;
59876;SDS011;45749;51.140;17.184;2022-11-20T05:43:38;52.23;;;27.95;;
59876;SDS011;45749;51.140;17.184;2022-11-20T05:46:08;51.45;;;27.10;;
59876;SDS011;45749;51.140;17.184;2022-11-20T05:48:36;66.45;;;34.18;;
59876;SDS011;45749;51.140;17.184;2022-11-20T05:51:04;74.85;;;38.58;;
59876;SDS011;45749;51.140;17.184;2022-11-20T05:53:32;74.37;;;38.83;;
59876;SDS011;45749;51.140;17.184;2022-11-20T05:56:00;80.62;;;41.15;;
59876;SDS011;45749;51.140;17.184;2022-11-20T05:58:30;86.85;;;42.62;;
59876;SDS011;45749;51.140;17.184;2022-11-20T06:03:40;75.05;;;39.53;;
59876;SDS011;45749;51.140;17.184;2022-11-20T06:06:08;85.60;;;39.45;;
59876;SDS011;45749;51.140;17.184;2022-11-20T06:08:34;80.28;;;40.98;;
59876;SDS011;45749;51.140;17.184;2022-11-20T06:11:08;65.92;;;35.35;;
59876;SDS011;45749;51.140;17.184;2022-11-20T06:13:33;70.15;;;35.25;;
59876;SDS011;45749;51.140;17.184;2022-11-20T06:15:59;63.75;;;33.92;;
59876;SDS011;45749;51.140;17.184;2022-11-20T06:18:29;57.13;;;30.25;;
59876;SDS011;45749;51.140;17.184;2022-11-20T06:20:59;62.50;;;29.87;;
59876;SDS011;45749;51.140;17.184;2022-11-20T06:23:34;61.28;;;31.37;;
59876;SDS011;45749;51.140;17.184;2022-11-20T06:26:02;64.95;;;32.78;;
59876;SDS011;45749;51.140;17.184;2022-11-20T06:28:31;57.62;;;30.92;;
59876;SDS011;45749;51.140;17.184;2022-11-20T06:30:57;62.65;;;32.55;;
59876;SDS011;45749;51.140;17.184;2022-11-20T06:33:24;65.05;;;32.50;;
59876;SDS011;45749;51.140;17.184;2022-11-20T06:35:50;63.63;;;34.38;;
59876;SDS011;45749;51.140;17.184;2022-11-20T06:38:17;71.53;;;36.42;;
59876;SDS011;45749;51.140;17.184;2022-11-20T06:40:43;58.48;;;34.95;;
59876;SDS011;45749;51.140;17.184;2022-11-20T06:43:09;73.30;;;37.65;;
59876;SDS011;45749;51.140;17.184;2022-11-20T06:45:36;57.35;;;33.73;;
59876;SDS011;45749;51.140;17.184;2022-11-20T06:48:02;64.37;;;33.33;;
59876;SDS011;45749;51.140;17.184;2022-11-20T06:50:28;60.15;;;32.10;;
59876;SDS011;45749;51.140;17.184;2022-11-20T06:52:54;59.42;;;31.68;;
59876;SDS011;45749;51.140;17.184;2022-11-20T06:55:20;59.35;;;32.28;;
59876;SDS011;45749;51.140;17.184;2022-11-20T06:57:46;60.40;;;32.38;;
59876;SDS011;45749;51.140;17.184;2022-11-20T07:00:13;59.95;;;33.45;;
59876;SDS011;45749;51.140;17.184;2022-11-20T07:02:39;65.08;;;36.83;;
59876;SDS011;45749;51.140;17.184;2022-11-20T07:05:05;67.67;;;35.45;;
59876;SDS011;45749;51.140;17.184;2022-11-20T07:07:31;63.20;;;33.50;;
59876;SDS011;45749;51.140;17.184;2022-11-20T07:09:57;57.23;;;31.25;;
59876;SDS011;45749;51.140;17.184;2022-11-20T07:12:23;60.52;;;30.27;;
59876;SDS011;45749;51.140;17.184;2022-11-20T07:14:49;62.80;;;32.88;;
59876;SDS011;45749;51.140;17.184;2022-11-20T07:17:15;63.50;;;33.90;;
59876;SDS011;45749;51.140;17.184;2022-11-20T07:19:41;68.22;;;34.85;;
59876;SDS011;45749;51.140;17.184;2022-11-20T07:22:08;68.10;;;35.23;;
59876;SDS011;45749;51.140;17.184;2022-11-20T07:24:34;63.65;;;34.00;;
59876;SDS011;45749;51.140;17.184;2022-11-20T07:27:00;64.87;;;33.73;;
59876;SDS011;45749;51.140;17.184;2022-11-20T07:29:26;74.55;;;36.40;;
59876;SDS011;45749;51.140;17.184;2022-11-20T07:31:52;70.12;;;35.75;;
59876;SDS011;45749;51.140;17.184;2022-11-20T07:34:18;71.53;;;40.38;;
59876;SDS011;45749;51.140;17.184;2022-11-20T07:36:45;76.80;;;39.40;;
59876;SDS011;45749;51.140;17.184;2022-11-20T07:39:10;77.97;;;37.70;;
59876;SDS011;45749;51.140;17.184;2022-11-20T07:41:36;57.38;;;31.90;;
59876;SDS011;45749;51.140;17.184;2022-11-20T07:44:02;63.48;;;31.15;;
59876;SDS011;45749;51.140;17.184;2022-11-20T07:46:29;67.70;;;32.90;;
59876;SDS011;45749;51.140;17.184;2022-11-20T07:48:55;59.50;;;29.98;;
59876;SDS011;45749;51.140;17.184;2022-11-20T07:51:20;52.70;;;29.60;;
59876;SDS011;45749;51.140;17.184;2022-11-20T07:53:47;51.60;;;27.67;;
59876;SDS011;45749;51.140;17.184;2022-11-20T07:56:17;48.58;;;26.97;;
59876;SDS011;45749;51.140;17.184;2022-11-20T07:58:43;57.40;;;30.27;;
59876;SDS011;45749;51.140;17.184;2022-11-20T08:01:09;46.95;;;27.90;;
59876;SDS011;45749;51.140;17.184;2022-11-20T08:03:35;46.25;;;28.05;;
59876;SDS011;45749;51.140;17.184;2022-11-20T08:06:05;47.78;;;24.98;;
59876;SDS011;45749;51.140;17.184;2022-11-20T08:08:31;57.88;;;27.42;;
59876;SDS011;45749;51.140;17.184;2022-11-20T08:10:57;51.60;;;28.77;;
59876;SDS011;45749;51.140;17.184;2022-11-20T08:13:42;50.28;;;26.80;;
59876;SDS011;45749;51.140;17.184;2022-11-20T08:16:27;51.60;;;25.32;;
59876;SDS011;45749;51.140;17.184;2022-11-20T08:18:53;55.55;;;29.70;;
59876;SDS011;45749;51.140;17.184;2022-11-20T08:21:20;51.90;;;27.22;;
59876;SDS011;45749;51.140;17.184;2022-11-20T08:23:46;56.37;;;30.97;;
59876;SDS011;45749;51.140;17.184;2022-11-20T08:26:11;50.60;;;29.57;;
59876;SDS011;45749;51.140;17.184;2022-11-20T08:28:37;62.25;;;32.53;;
59876;SDS011;45749;51.140;17.184;2022-11-20T08:31:03;69.85;;;34.33;;
59876;SDS011;45749;51.140;17.184;2022-11-20T08:33:30;60.67;;;33.30;;
59876;SDS011;45749;51.140;17.184;2022-11-20T08:35:58;65.03;;;36.60;;
59876;SDS011;45749;51.140;17.184;2022-11-20T08:38:30;76.10;;;38.33;;
59876;SDS011;45749;51.140;17.184;2022-11-20T08:41:00;70.03;;;35.20;;
59876;SDS011;45749;51.140;17.184;2022-11-20T08:43:48;68.87;;;35.78;;
59876;SDS011;45749;51.140;17.184;2022-11-20T08:46:15;70.85;;;36.50;;
59876;SDS011;45749;51.140;17.184;2022-11-20T08:48:42;71.12;;;34.85;;
59876;SDS011;45749;51.140;17.184;2022-11-20T08:51:09;60.15;;;32.93;;
59876;SDS011;45749;51.140;17.184;2022-11-20T08:53:36;64.25;;;33.10;;
59876;SDS011;45749;51.140;17.184;2022-11-20T08:56:03;54.55;;;31.70;;
59876;SDS011;45749;51.140;17.184;2022-11-20T08:58:29;55.55;;;28.65;;
59876;SDS011;45749;51.140;17.184;2022-11-20T09:00:55;48.73;;;25.82;;
59876;SDS011;45749;51.140;17.184;2022-11-20T09:03:21;51.33;;;27.62;;
59876;SDS011;45749;51.140;17.184;2022-11-20T09:05:47;47.40;;;27.37;;
59876;SDS011;45749;51.140;17.184;2022-11-20T09:08:13;47.67;;;26.37;;
59876;SDS011;45749;51.140;17.184;2022-11-20T09:10:39;45.10;;;25.37;;
59876;SDS011;45749;51.140;17.184;2022-11-20T09:13:08;51.85;;;26.62;;
59876;SDS011;45749;51.140;17.184;2022-11-20T09:15:34;55.95;;;29.57;;
59876;SDS011;45749;51.140;17.184;2022-11-20T09:18:00;51.33;;;26.45;;
59876;SDS011;45749;51.140;17.184;2022-11-20T09:20:29;46.95;;;26.97;;
59876;SDS011;45749;51.140;17.184;2022-11-20T09:22:56;56.23;;;28.65;;
59876;SDS011;45749;51.140;17.184;2022-11-20T09:25:23;51.53;;;27.70;;
59876;SDS011;45749;51.140;17.184;2022-11-20T09:27:54;51.90;;;27.27;;
59876;SDS011;45749;51.140;17.184;2022-11-20T09:30:22;52.38;;;27.90;;
59876;SDS011;45749;51.140;17.184;2022-11-20T09:32:48;54.30;;;26.45;;
59876;SDS011;45749;51.140;17.184;2022-11-20T09:35:14;49.63;;;25.35;;
59876;SDS011;45749;51.140;17.184;2022-11-20T09:37:40;48.23;;;27.20;;
59876;SDS011;45749;51.140;17.184;2022-11-20T09:40:06;42.55;;;22.77;;
59876;SDS011;45749;51.140;17.184;2022-11-20T09:54:18;47.45;;;23.75;;
59876;SDS011;45749;51.140;17.184;2022-11-20T09:56:57;41.90;;;23.35;;
59876;SDS011;45749;51.140;17.184;2022-11-20T10:02:27;39.95;;;21.80;;
59876;SDS011;45749;51.140;17.184;2022-11-20T10:05:01;45.50;;;22.02;;
59876;SDS011;45749;51.140;17.184;2022-11-20T10:10:35;37.88;;;20.05;;
59876;SDS011;45749;51.140;17.184;2022-11-20T10:13:13;50.28;;;27.07;;
59876;SDS011;45749;51.140;17.184;2022-11-20T10:16:02;43.70;;;23.00;;
59876;SDS011;45749;51.140;17.184;2022-11-20T10:21:56;40.90;;;22.98;;
59876;SDS011;45749;51.140;17.184;2022-11-20T10:24:48;42.05;;;22.87;;
59876;SDS011;45749;51.140;17.184;2022-11-20T10:30:59;44.88;;;23.52;;
59876;SDS011;45749;51.140;17.184;2022-11-20T10:33:33;51.13;;;25.60;;
59876;SDS011;45749;51.140;17.184;2022-11-20T10:36:09;43.70;;;23.10;;
59876;SDS011;45749;51.140;17.184;2022-11-20T10:38:41;39.90;;;21.87;;
59876;SDS011;45749;51.140;17.184;2022-11-20T10:41:34;41.28;;;22.70;;
59876;SDS011;45749;51.140;17.184;2022-11-20T10:44:12;45.73;;;23.32;;
59876;SDS011;45749;51.140;17.184;2022-11-20T10:47:11;40.20;;;22.45;;
59876;SDS011;45749;51.140;17.184;2022-11-20T10:49:41;42.00;;;23.50;;
59876;SDS011;45749;51.140;17.184;2022-11-20T10:52:19;35.03;;;19.98;;
59876;SDS011;45749;51.140;17.184;2022-11-20T11:00:52;73.90;;;37.73;;
59876;SDS011;45749;51.140;17.184;2022-11-20T11:03:31;50.45;;;28.32;;
59876;SDS011;45749;51.140;17.184;2022-11-20T11:06:08;47.80;;;28.25;;
59876;SDS011;45749;51.140;17.184;2022-11-20T11:08:55;41.18;;;21.85;;
59876;SDS011;45749;51.140;17.184;2022-11-20T11:11:32;42.45;;;21.12;;
59876;SDS011;45749;51.140;17.184;2022-11-20T11:14:07;55.55;;;25.68;;
59876;SDS011;45749;51.140;17.184;2022-11-20T11:16:40;37.73;;;21.07;;
59876;SDS011;45749;51.140;17.184;2022-11-20T11:19:18;43.58;;;22.98;;
59876;SDS011;45749;51.140;17.184;2022-11-20T11:21:48;37.05;;;20.40;;
59876;SDS011;45749;51.140;17.184;2022-11-20T11:26:56;38.17;;;22.17;;
59876;SDS011;45749;51.140;17.184;2022-11-20T11:29:27;33.78;;;18.87;;
59876;SDS011;45749;51.140;17.184;2022-11-20T11:34:40;34.35;;;18.95;;
59876;SDS011;45749;51.140;17.184;2022-11-20T11:37:39;29.82;;;17.62;;
59876;SDS011;45749;51.140;17.184;2022-11-20T11:39:46;33.38;;;18.32;;
59876;SDS011;45749;51.140;17.184;2022-11-20T11:42:16;27.73;;;18.40;;
59876;SDS011;45749;51.140;17.184;2022-11-20T11:44:44;47.60;;;24.45;;
59876;SDS011;45749;51.140;17.184;2022-11-20T11:47:31;34.67;;;18.48;;
59876;SDS011;45749;51.140;17.184;2022-11-20T11:52:56;33.55;;;19.10;;
59876;SDS011;45749;51.140;17.184;2022-11-20T12:00:51;32.03;;;18.30;;
59876;SDS011;45749;51.140;17.184;2022-11-20T12:03:25;27.50;;;15.63;;
59876;SDS011;45749;51.140;17.184;2022-11-20T12:06:11;39.23;;;19.65;;
59876;SDS011;45749;51.140;17.184;2022-11-20T12:14:33;35.05;;;19.35;;
59876;SDS011;45749;51.140;17.184;2022-11-20T12:17:00;35.20;;;19.80;;
59876;SDS011;45749;51.140;17.184;2022-11-20T12:19:33;31.37;;;18.37;;
59876;SDS011;45749;51.140;17.184;2022-11-20T12:25:01;29.12;;;16.23;;
59876;SDS011;45749;51.140;17.184;2022-11-20T12:30:24;33.90;;;18.42;;
59876;SDS011;45749;51.140;17.184;2022-11-20T12:35:52;29.87;;;16.23;;
59876;SDS011;45749;51.140;17.184;2022-11-20T12:41:44;31.73;;;16.70;;
59876;SDS011;45749;51.140;17.184;2022-11-20T12:44:43;41.05;;;22.40;;
59876;SDS011;45749;51.140;17.184;2022-11-20T12:59:14;25.95;;;16.57;;
59876;SDS011;45749;51.140;17.184;2022-11-20T13:02:00;27.62;;;15.70;;
59876;SDS011;45749;51.140;17.184;2022-11-20T13:05:08;27.20;;;14.80;;
59876;SDS011;45749;51.140;17.184;2022-11-20T13:07:53;46.33;;;27.82;;
59876;SDS011;45749;51.140;17.184;2022-11-20T13:10:26;64.22;;;37.33;;
59876;SDS011;45749;51.140;17.184;2022-11-20T13:13:25;80.65;;;43.92;;
59876;SDS011;45749;51.140;17.184;2022-11-20T13:16:02;29.02;;;17.20;;
59876;SDS011;45749;51.140;17.184;2022-11-20T13:18:33;49.30;;;31.87;;
59876;SDS011;45749;51.140;17.184;2022-11-20T13:21:12;35.90;;;20.68;;
59876;SDS011;45749;51.140;17.184;2022-11-20T13:24:05;27.58;;;16.40;;
59876;SDS011;45749;51.140;17.184;2022-11-20T13:27:05;27.48;;;16.73;;
59876;SDS011;45749;51.140;17.184;2022-11-20T13:29:42;29.23;;;17.55;;
59876;SDS011;45749;51.140;17.184;2022-11-20T13:32:14;22.98;;;15.08;;
59876;SDS011;45749;51.140;17.184;2022-11-20T13:34:56;29.30;;;19.30;;
59876;SDS011;45749;51.140;17.184;2022-11-20T13:37:28;51.20;;;31.57;;
59876;SDS011;45749;51.140;17.184;2022-11-20T13:42:40;39.42;;;23.22;;
59876;SDS011;45749;51.140;17.184;2022-11-20T13:45:24;25.82;;;16.15;;
59876;SDS011;45749;51.140;17.184;2022-11-20T13:48:02;28.85;;;16.62;;
59876;SDS011;45749;51.140;17.184;2022-11-20T13:51:33;29.90;;;17.92;;
59876;SDS011;45749;51.140;17.184;2022-11-20T14:02:22;25.37;;;15.80;;
59876;SDS011;45749;51.140;17.184;2022-11-20T14:04:56;29.82;;;20.43;;
59876;SDS011;45749;51.140;17.184;2022-11-20T14:07:25;26.85;;;16.42;;
59876;SDS011;45749;51.140;17.184;2022-11-20T14:10:04;35.75;;;20.85;;
59876;SDS011;45749;51.140;17.184;2022-11-20T14:12:33;321.05;;;124.10;;
59876;SDS011;45749;51.140;17.184;2022-11-20T14:14:59;335.45;;;122.45;;
59876;SDS011;45749;51.140;17.184;2022-11-20T14:20:04;633.90;;;279.48;;
59876;SDS011;45749;51.140;17.184;2022-11-20T14:22:34;443.45;;;176.60;;
59876;SDS011;45749;51.140;17.184;2022-11-20T14:25:05;459.80;;;198.47;;
59876;SDS011;45749;51.140;17.184;2022-11-20T14:27:42;422.98;;;175.78;;
59876;SDS011;45749;51.140;17.184;2022-11-20T14:30:16;335.40;;;127.80;;
59876;SDS011;45749;51.140;17.184;2022-11-20T14:32:45;239.97;;;95.17;;
59876;SDS011;45749;51.140;17.184;2022-11-20T14:35:18;120.87;;;52.48;;
59876;SDS011;45749;51.140;17.184;2022-11-20T14:37:44;103.62;;;45.95;;
59876;SDS011;45749;51.140;17.184;2022-11-20T14:40:23;95.53;;;46.20;;
59876;SDS011;45749;51.140;17.184;2022-11-20T14:43:01;97.20;;;44.38;;
59876;SDS011;45749;51.140;17.184;2022-11-20T14:45:31;79.30;;;41.35;;
59876;SDS011;45749;51.140;17.184;2022-11-20T14:47:57;80.17;;;40.10;;
59876;SDS011;45749;51.140;17.184;2022-11-20T14:50:26;73.80;;;38.38;;
59876;SDS011;45749;51.140;17.184;2022-11-20T14:52:59;71.17;;;36.58;;
59876;SDS011;45749;51.140;17.184;2022-11-20T14:55:25;64.32;;;33.63;;
59876;SDS011;45749;51.140;17.184;2022-11-20T14:57:59;65.25;;;36.25;;
59876;SDS011;45749;51.140;17.184;2022-11-20T15:00:31;62.78;;;33.92;;
59876;SDS011;45749;51.140;17.184;2022-11-20T15:02:59;63.13;;;34.13;;
59876;SDS011;45749;51.140;17.184;2022-11-20T15:05:37;67.40;;;36.60;;
59876;SDS011;45749;51.140;17.184;2022-11-20T15:08:14;73.78;;;41.75;;
59876;SDS011;45749;51.140;17.184;2022-11-20T15:10:47;83.25;;;44.53;;
59876;SDS011;45749;51.140;17.184;2022-11-20T15:13:18;74.87;;;42.05;;
59876;SDS011;45749;51.140;17.184;2022-11-20T15:15:56;71.00;;;40.35;;
59876;SDS011;45749;51.140;17.184;2022-11-20T15:18:37;74.37;;;40.80;;
59876;SDS011;45749;51.140;17.184;2022-11-20T15:21:12;60.12;;;34.60;;
59876;SDS011;45749;51.140;17.184;2022-11-20T15:26:08;59.85;;;33.95;;
59876;SDS011;45749;51.140;17.184;2022-11-20T15:28:39;62.62;;;37.60;;
59876;SDS011;45749;51.140;17.184;2022-11-20T15:31:11;62.25;;;36.68;;
59876;SDS011;45749;51.140;17.184;2022-11-20T15:33:40;76.67;;;41.18;;
59876;SDS011;45749;51.140;17.184;2022-11-20T15:36:06;68.65;;;38.15;;
59876;SDS011;45749;51.140;17.184;2022-11-20T15:38:32;84.15;;;43.95;;
59876;SDS011;45749;51.140;17.184;2022-11-20T15:40:58;87.55;;;44.48;;
59876;SDS011;45749;51.140;17.184;2022-11-20T15:43:24;85.53;;;47.25;;
59876;SDS011;45749;51.140;17.184;2022-11-20T15:45:59;80.95;;;45.73;;
59876;SDS011;45749;51.140;17.184;2022-11-20T15:48:31;82.62;;;44.95;;
59876;SDS011;45749;51.140;17.184;2022-11-20T15:56:15;109.40;;;56.30;;
59876;SDS011;45749;51.140;17.184;2022-11-20T15:58:42;339.95;;;142.20;;
59876;SDS011;45749;51.140;17.184;2022-11-20T16:01:10;277.55;;;113.08;;
59876;SDS011;45749;51.140;17.184;2022-11-20T16:03:38;187.22;;;84.40;;
59876;SDS011;45749;51.140;17.184;2022-11-20T16:06:05;184.45;;;83.27;;
59876;SDS011;45749;51.140;17.184;2022-11-20T16:08:31;208.00;;;89.77;;
59876;SDS011;45749;51.140;17.184;2022-11-20T16:10:57;200.10;;;88.47;;
59876;SDS011;45749;51.140;17.184;2022-11-20T16:13:23;275.93;;;130.55;;
59876;SDS011;45749;51.140;17.184;2022-11-20T16:16:11;145.25;;;74.95;;
59876;SDS011;45749;51.140;17.184;2022-11-20T16:18:46;183.32;;;87.45;;